createdAt,value
2018-02-17T00:00:48.620Z,7.81
2018-02-17T00:03:16.356Z,7.74
2018-02-17T00:05:43.421Z,7.71
2018-02-17T00:08:10.490Z,7.82
2018-02-17T00:10:37.635Z,7.85
2018-02-17T00:13:04.647Z,7.84
2018-02-17T00:15:32.981Z,7.83
2018-02-17T00:18:00.044Z,7.90
2018-02-17T00:20:27.108Z,7.98
2018-02-17T00:22:54.178Z,8.02
2018-02-17T00:25:21.264Z,7.96
2018-02-17T00:27:48.310Z,8.00
2018-02-17T00:30:15.486Z,7.94
2018-02-17T00:32:42.555Z,7.91
2018-02-17T00:35:09.623Z,7.93
2018-02-17T00:37:36.852Z,7.90
2018-02-17T00:40:03.902Z,7.96
2018-02-17T00:42:30.988Z,8.03
2018-02-17T00:44:58.160Z,8.02
2018-02-17T00:47:25.199Z,7.96
2018-02-17T00:49:52.238Z,7.96
2018-02-17T00:52:19.553Z,7.95
2018-02-17T00:54:46.588Z,7.94
2018-02-17T00:57:13.703Z,7.86
2018-02-17T00:59:40.726Z,7.80
2018-02-17T01:02:07.779Z,7.79
2018-02-17T01:04:34.811Z,7.80
2018-02-17T01:07:01.871Z,7.76
2018-02-17T01:09:28.907Z,7.75
2018-02-17T01:11:55.949Z,7.75
2018-02-17T01:14:22.996Z,7.70
2018-02-17T01:16:50.098Z,7.73
2018-02-17T01:19:17.164Z,7.79
2018-02-17T01:21:44.172Z,7.81
2018-02-17T01:24:11.276Z,7.80
2018-02-17T01:26:38.324Z,7.86
2018-02-17T01:29:05.397Z,7.88
2018-02-17T01:31:32.408Z,7.90
2018-02-17T01:33:59.361Z,7.86
2018-02-17T01:36:26.632Z,7.88
2018-02-17T01:38:53.669Z,7.87
2018-02-17T01:41:20.693Z,7.94
2018-02-17T01:43:47.720Z,7.91
2018-02-17T01:46:14.729Z,7.93
2018-02-17T01:48:41.821Z,7.89
2018-02-17T01:51:08.820Z,7.89
2018-02-17T01:53:35.883Z,7.89
2018-02-17T01:56:02.920Z,7.89
2018-02-17T01:58:30.003Z,7.88
2018-02-17T02:00:57.034Z,7.92
2018-02-17T02:03:24.097Z,7.89
2018-02-17T02:05:51.122Z,7.90
2018-02-17T02:08:18.160Z,7.89
2018-02-17T02:10:45.243Z,7.81
2018-02-17T02:13:12.304Z,7.81
2018-02-17T02:15:39.319Z,7.85
2018-02-17T02:18:06.348Z,7.81
2018-02-17T02:20:33.398Z,7.79
2018-02-17T02:23:00.389Z,7.77
2018-02-17T02:25:27.417Z,7.76
2018-02-17T02:27:54.389Z,7.82
2018-02-17T02:30:21.447Z,7.83
2018-02-17T02:32:48.474Z,7.79
2018-02-17T02:35:15.625Z,7.86
2018-02-17T02:37:42.641Z,7.80
2018-02-17T02:40:09.650Z,7.79
2018-02-17T02:42:36.663Z,7.81
2018-02-17T02:45:03.730Z,7.81
2018-02-17T02:47:30.783Z,7.81
2018-02-17T02:49:57.850Z,7.84
2018-02-17T02:52:24.911Z,7.82
2018-02-17T02:54:51.985Z,7.81
2018-02-17T02:57:18.978Z,7.84
2018-02-17T02:59:46.002Z,7.94
2018-02-17T03:02:13.071Z,7.90
2018-02-17T03:04:40.181Z,7.86
2018-02-17T03:07:07.247Z,7.82
2018-02-17T03:09:34.288Z,7.75
2018-02-17T03:12:01.315Z,7.77
2018-02-17T03:14:28.364Z,7.78
2018-02-17T03:16:55.387Z,7.86
2018-02-17T03:19:22.429Z,7.92
2018-02-17T03:21:49.440Z,7.90
2018-02-17T03:24:16.467Z,7.94
2018-02-17T03:26:43.621Z,7.96
2018-02-17T03:29:10.843Z,7.91
2018-02-17T03:31:37.792Z,7.80
2018-02-17T03:34:04.840Z,7.74
2018-02-17T03:36:32.155Z,7.79
2018-02-17T03:38:59.250Z,7.88
2018-02-17T03:41:26.332Z,7.88
2018-02-17T03:43:53.444Z,7.96
2018-02-17T03:46:20.493Z,8.03
2018-02-17T03:48:48.037Z,7.96
2018-02-17T03:51:15.070Z,8.02
2018-02-17T03:53:42.101Z,7.96
2018-02-17T03:56:09.188Z,7.96
2018-02-17T03:58:36.263Z,7.98
2018-02-17T04:01:03.484Z,7.96
2018-02-17T04:03:30.510Z,7.97
2018-02-17T04:05:57.613Z,7.95
2018-02-17T04:08:24.669Z,8.03
2018-02-17T04:10:51.706Z,8.10
2018-02-17T04:13:18.755Z,8.11
2018-02-17T04:15:45.813Z,8.11
2018-02-17T04:18:12.802Z,8.00
2018-02-17T04:20:39.764Z,8.03
2018-02-17T04:23:06.803Z,8.05
2018-02-17T04:25:33.851Z,8.08
2018-02-17T04:28:00.956Z,8.13
2018-02-17T04:30:28.000Z,8.15
2018-02-17T04:32:55.024Z,8.23
2018-02-17T04:35:21.967Z,8.27
2018-02-17T04:37:48.992Z,8.18
2018-02-17T04:40:25.952Z,8.10
2018-02-17T04:43:08.674Z,8.00
2018-02-17T04:45:45.685Z,7.87
2018-02-17T04:48:22.648Z,7.92
2018-02-17T04:50:53.294Z,8.00
2018-02-17T04:53:22.880Z,7.82
2018-02-17T04:58:42.718Z,7.87
2018-02-17T05:01:24.627Z,7.86
2018-02-17T05:03:56.112Z,7.84
2018-02-17T05:06:43.034Z,7.89
2018-02-17T05:09:10.023Z,7.93
2018-02-17T05:11:37.040Z,7.92
2018-02-17T05:14:09.772Z,7.86
2018-02-17T05:16:47.411Z,7.89
2018-02-17T05:19:14.414Z,7.97
2018-02-17T05:21:41.378Z,7.96
2018-02-17T05:24:10.136Z,7.92
2018-02-17T05:26:47.094Z,7.93
2018-02-17T05:29:14.310Z,7.94
2018-02-17T05:31:41.317Z,7.98
2018-02-17T05:34:13.078Z,8.04
2018-02-17T05:36:40.075Z,8.11
2018-02-17T05:39:07.113Z,8.14
2018-02-17T05:41:50.849Z,8.06
2018-02-17T05:44:23.415Z,8.00
2018-02-17T05:46:52.310Z,7.88
2018-02-17T05:49:20.847Z,7.82
2018-02-17T05:51:47.866Z,7.74
2018-02-17T05:54:14.915Z,7.73
2018-02-17T05:56:41.891Z,7.65
2018-02-17T05:59:08.906Z,7.72
2018-02-17T06:01:35.951Z,7.80
2018-02-17T06:04:02.958Z,7.87
2018-02-17T06:06:30.073Z,7.87
2018-02-17T06:08:57.134Z,7.92
2018-02-17T06:11:24.188Z,7.98
2018-02-17T06:13:51.206Z,8.04
2018-02-17T06:16:18.276Z,8.10
2018-02-17T06:18:45.330Z,8.11
2018-02-17T06:21:12.355Z,8.09
2018-02-17T06:23:39.433Z,8.07
2018-02-17T06:26:06.492Z,8.02
2018-02-17T06:28:33.579Z,7.97
2018-02-17T06:31:00.627Z,7.89
2018-02-17T06:33:27.668Z,7.86
2018-02-17T06:35:54.775Z,7.89
2018-02-17T06:38:21.757Z,7.93
2018-02-17T06:40:48.772Z,7.89
2018-02-17T06:43:16.163Z,7.79
2018-02-17T06:45:43.328Z,7.81
2018-02-17T06:48:10.431Z,7.73
2018-02-17T06:50:37.462Z,7.67
2018-02-17T06:53:04.564Z,7.60
2018-02-17T06:55:31.600Z,7.55
2018-02-17T06:57:58.640Z,7.52
2018-02-17T07:00:25.614Z,7.57
2018-02-17T07:02:52.764Z,7.63
2018-02-17T07:05:19.775Z,7.68
2018-02-17T07:07:47.315Z,7.72
2018-02-17T07:10:14.422Z,7.73
2018-02-17T07:12:41.490Z,7.74
2018-02-17T07:15:08.535Z,7.75
2018-02-17T07:17:35.565Z,7.80
2018-02-17T07:20:02.629Z,7.72
2018-02-17T07:22:29.703Z,7.77
2018-02-17T07:24:56.743Z,7.83
2018-02-17T07:27:23.744Z,7.73
2018-02-17T07:29:50.982Z,7.74
2018-02-17T07:32:18.003Z,7.82
2018-02-17T07:34:45.055Z,7.85
2018-02-17T07:37:12.065Z,7.93
2018-02-17T07:39:39.114Z,7.94
2018-02-17T07:42:06.183Z,7.94
2018-02-17T07:44:33.238Z,7.92
2018-02-17T07:47:00.604Z,7.86
2018-02-17T07:49:27.661Z,7.83
2018-02-17T07:51:54.732Z,7.80
2018-02-17T07:54:21.867Z,7.87
2018-02-17T07:56:48.929Z,7.94
2018-02-17T07:59:15.978Z,7.95
2018-02-17T08:01:43.028Z,7.96
2018-02-17T08:04:10.111Z,7.91
2018-02-17T08:06:37.138Z,7.89
2018-02-17T08:09:04.120Z,7.86
2018-02-17T08:11:31.485Z,7.74
2018-02-17T08:13:58.523Z,7.77
2018-02-17T08:16:26.046Z,7.91
2018-02-17T08:18:53.097Z,7.98
2018-02-17T08:21:20.126Z,8.03
2018-02-17T08:23:47.124Z,7.72
2018-02-17T08:26:14.166Z,7.80
2018-02-17T08:28:41.202Z,7.98
2018-02-17T08:31:08.259Z,8.04
2018-02-17T08:33:35.370Z,8.19
2018-02-17T08:36:02.399Z,8.33
2018-02-17T08:38:31.155Z,8.36
2018-02-17T08:40:58.321Z,8.28
2018-02-17T08:43:25.979Z,8.36
2018-02-17T08:45:53.017Z,8.28
2018-02-17T08:48:20.107Z,8.11
2018-02-17T08:50:47.213Z,8.15
2018-02-17T08:53:14.827Z,8.13
2018-02-17T08:55:41.851Z,8.21
2018-02-17T08:58:08.876Z,8.28
2018-02-17T09:00:35.959Z,8.38
2018-02-17T09:03:02.998Z,8.33
2018-02-17T09:05:30.080Z,8.38
2018-02-17T09:07:57.541Z,8.38
2018-02-17T09:10:30.381Z,8.32
2018-02-17T09:12:57.436Z,8.50
2018-02-17T09:15:24.606Z,8.63
2018-02-17T09:17:51.667Z,8.72
2018-02-17T09:20:18.723Z,8.71
2018-02-17T09:22:45.788Z,8.72
2018-02-17T09:25:12.850Z,8.75
2018-02-17T09:27:39.919Z,8.84
2018-02-17T09:30:06.973Z,8.97
2018-02-17T09:32:34.029Z,9.19
2018-02-17T09:35:01.132Z,9.41
2018-02-17T09:37:28.248Z,9.49
2018-02-17T09:39:55.344Z,9.73
2018-02-17T09:42:22.431Z,9.92
2018-02-17T09:44:49.488Z,10.07
2018-02-17T09:47:16.477Z,10.23
2018-02-17T09:49:43.498Z,10.38
2018-02-17T09:52:10.544Z,10.50
2018-02-17T09:54:38.132Z,10.62
2018-02-17T09:57:05.326Z,10.76
2018-02-17T09:59:32.396Z,10.84
2018-02-17T10:01:59.402Z,10.77
2018-02-17T10:04:26.453Z,10.85
2018-02-17T10:06:53.601Z,10.94
2018-02-17T10:09:20.652Z,10.99
2018-02-17T10:11:47.711Z,11.04
2018-02-17T10:14:14.783Z,10.98
2018-02-17T10:16:41.793Z,11.02
2018-02-17T10:19:08.819Z,11.04
2018-02-17T10:21:35.873Z,11.04
2018-02-17T10:24:02.923Z,11.06
2018-02-17T10:26:29.975Z,11.11
2018-02-17T10:28:57.016Z,11.13
2018-02-17T10:31:24.126Z,11.14
2018-02-17T10:33:51.175Z,11.16
2018-02-17T10:36:18.256Z,11.21
2018-02-17T10:38:45.286Z,11.24
2018-02-17T10:41:12.338Z,11.25
2018-02-17T10:43:39.395Z,11.28
2018-02-17T10:46:06.471Z,11.24
2018-02-17T10:48:33.453Z,11.22
2018-02-17T10:51:00.461Z,11.19
2018-02-17T10:53:27.504Z,11.17
2018-02-17T10:55:54.565Z,11.11
2018-02-17T10:58:21.632Z,11.06
2018-02-17T11:00:48.649Z,11.02
2018-02-17T11:03:15.637Z,11.02
2018-02-17T11:05:42.944Z,11.00
2018-02-17T11:08:09.961Z,11.02
2018-02-17T11:10:37.064Z,10.98
2018-02-17T11:13:04.093Z,10.94
2018-02-17T11:15:31.199Z,10.89
2018-02-17T11:17:58.202Z,10.83
2018-02-17T11:20:25.251Z,10.85
2018-02-17T11:22:52.326Z,10.89
2018-02-17T11:25:19.416Z,10.91
2018-02-17T11:27:46.577Z,10.90
2018-02-17T11:30:13.678Z,10.82
2018-02-17T11:32:40.717Z,10.77
2018-02-17T11:35:07.717Z,10.75
2018-02-17T11:37:34.804Z,10.79
2018-02-17T11:40:01.869Z,10.85
2018-02-17T11:42:28.975Z,10.84
2018-02-17T11:44:55.938Z,10.82
2018-02-17T11:47:22.954Z,10.83
2018-02-17T11:49:49.961Z,10.86
2018-02-17T11:52:17.001Z,10.84
2018-02-17T11:54:44.005Z,10.84
2018-02-17T11:57:11.058Z,10.88
2018-02-17T11:59:38.067Z,10.90
2018-02-17T12:02:05.090Z,10.88
2018-02-17T12:04:32.148Z,10.87
2018-02-17T12:06:59.252Z,10.90
2018-02-17T12:09:26.277Z,10.89
2018-02-17T12:11:53.347Z,10.89
2018-02-17T12:14:20.347Z,10.86
2018-02-17T12:16:47.446Z,10.86
2018-02-17T12:19:14.701Z,10.87
2018-02-17T12:21:41.730Z,10.90
2018-02-17T12:24:08.833Z,10.89
2018-02-17T12:26:35.873Z,10.90
2018-02-17T12:29:02.884Z,10.80
2018-02-17T12:31:29.917Z,10.69
2018-02-17T12:33:56.922Z,10.61
2018-02-17T12:36:23.996Z,10.61
2018-02-17T12:38:51.116Z,10.56
2018-02-17T12:41:18.321Z,10.54
2018-02-17T12:43:45.283Z,10.51
2018-02-17T12:46:12.327Z,10.51
2018-02-17T12:48:39.382Z,10.54
2018-02-17T12:51:06.434Z,10.58
2018-02-17T12:53:33.462Z,10.57
2018-02-17T12:56:00.519Z,10.51
2018-02-17T12:58:27.593Z,10.51
2018-02-17T13:00:54.610Z,10.56
2018-02-17T13:03:21.686Z,10.55
2018-02-17T13:05:48.655Z,10.52
2018-02-17T13:08:15.707Z,10.48
2018-02-17T13:10:42.859Z,10.46
2018-02-17T13:13:09.839Z,10.44
2018-02-17T13:15:36.895Z,10.38
2018-02-17T13:18:04.048Z,10.26
2018-02-17T13:20:31.640Z,10.21
2018-02-17T13:22:58.643Z,10.16
2018-02-17T13:25:25.873Z,10.16
2018-02-17T13:27:52.974Z,10.05
2018-02-17T13:30:20.077Z,9.98
2018-02-17T13:32:47.143Z,9.86
2018-02-17T13:35:14.119Z,9.78
2018-02-17T13:37:41.166Z,9.78
2018-02-17T13:40:08.212Z,9.74
2018-02-17T13:42:35.213Z,9.78
2018-02-17T13:45:03.336Z,9.84
2018-02-17T13:47:30.487Z,9.90
2018-02-17T13:49:57.563Z,9.91
2018-02-17T13:52:24.605Z,9.91
2018-02-17T13:54:51.664Z,9.84
2018-02-17T13:57:18.751Z,9.87
2018-02-17T13:59:45.903Z,9.91
2018-02-17T14:02:12.961Z,9.90
2018-02-17T14:04:39.926Z,9.90
2018-02-17T14:07:06.947Z,9.88
2018-02-17T14:09:33.977Z,9.89
2018-02-17T14:12:01.757Z,9.89
2018-02-17T14:14:28.814Z,9.93
2018-02-17T14:16:55.874Z,9.89
2018-02-17T14:19:22.837Z,9.87
2018-02-17T14:21:49.854Z,9.88
2018-02-17T14:24:16.863Z,9.89
2018-02-17T14:26:43.917Z,9.90
2018-02-17T14:29:10.938Z,9.83
2018-02-17T14:31:37.984Z,9.73
2018-02-17T14:34:05.014Z,9.83
2018-02-17T14:36:32.024Z,9.86
2018-02-17T14:38:59.033Z,9.83
2018-02-17T14:41:26.080Z,9.85
2018-02-17T14:43:53.119Z,9.81
2018-02-17T14:46:20.146Z,9.79
2018-02-17T14:48:47.186Z,9.78
2018-02-17T14:51:14.203Z,9.79
2018-02-17T14:53:41.261Z,9.81
2018-02-17T14:56:08.309Z,9.79
2018-02-17T14:58:35.299Z,9.87
2018-02-17T15:01:02.342Z,9.91
2018-02-17T15:03:29.365Z,9.94
2018-02-17T15:05:56.398Z,9.96
2018-02-17T15:08:23.419Z,9.90
2018-02-17T15:10:50.419Z,9.85
2018-02-17T15:13:17.564Z,9.82
2018-02-17T15:15:44.621Z,9.87
2018-02-17T15:18:11.632Z,9.88
2018-02-17T15:20:38.680Z,9.85
2018-02-17T15:23:05.729Z,9.95
2018-02-17T15:25:32.698Z,9.96
2018-02-17T15:27:59.690Z,9.90
2018-02-17T15:30:27.229Z,9.89
2018-02-17T15:32:54.266Z,9.85
2018-02-17T15:35:21.416Z,9.80
2018-02-17T15:37:48.427Z,9.78
2018-02-17T15:40:15.404Z,9.86
2018-02-17T15:42:42.472Z,10.05
2018-02-17T15:45:09.529Z,10.05
2018-02-17T15:47:36.598Z,10.04
2018-02-17T15:50:03.590Z,9.97
2018-02-17T15:52:30.574Z,9.89
2018-02-17T15:54:57.629Z,9.80
2018-02-17T15:57:24.637Z,9.78
2018-02-17T15:59:51.692Z,9.64
2018-02-17T16:02:18.687Z,9.53
2018-02-17T16:04:45.754Z,9.51
2018-02-17T16:07:12.725Z,9.49
2018-02-17T16:09:39.774Z,9.41
2018-02-17T16:12:07.547Z,9.41
2018-02-17T16:14:34.608Z,9.43
2018-02-17T16:17:01.623Z,9.45
2018-02-17T16:19:28.767Z,9.40
2018-02-17T16:21:55.880Z,9.29
2018-02-17T16:24:22.914Z,9.25
2018-02-17T16:26:49.983Z,9.27
2018-02-17T16:29:16.994Z,9.20
2018-02-17T16:31:44.050Z,9.11
2018-02-17T16:34:11.088Z,9.07
2018-02-17T16:36:38.081Z,9.07
2018-02-17T16:39:05.123Z,9.10
2018-02-17T16:41:32.107Z,9.17
2018-02-17T16:43:59.170Z,9.12
2018-02-17T16:46:26.255Z,9.07
2018-02-17T16:48:53.286Z,9.05
2018-02-17T16:51:20.348Z,9.05
2018-02-17T16:53:47.414Z,9.02
2018-02-17T16:56:14.552Z,9.03
2018-02-17T16:58:41.541Z,9.02
2018-02-17T17:01:08.484Z,9.05
2018-02-17T17:03:35.529Z,9.08
2018-02-17T17:06:03.207Z,9.05
2018-02-17T17:08:30.629Z,9.05
2018-02-17T17:10:57.655Z,9.03
2018-02-17T17:13:24.599Z,9.07
2018-02-17T17:15:51.613Z,9.07
2018-02-17T17:18:19.641Z,9.07
2018-02-17T17:20:46.698Z,9.03
2018-02-17T17:23:13.754Z,9.03
2018-02-17T17:25:40.790Z,9.04
2018-02-17T17:28:07.798Z,9.02
2018-02-17T17:30:34.861Z,8.99
2018-02-17T17:33:01.907Z,8.94
2018-02-17T17:35:28.942Z,8.91
2018-02-17T17:37:55.958Z,8.89
2018-02-17T17:40:23.072Z,8.85
2018-02-17T17:42:50.117Z,8.82
2018-02-17T17:45:17.256Z,8.82
2018-02-17T17:47:44.217Z,8.77
2018-02-17T17:50:11.261Z,8.76
2018-02-17T17:52:38.409Z,8.73
2018-02-17T17:55:05.377Z,8.71
2018-02-17T17:57:32.602Z,8.61
2018-02-17T17:59:59.649Z,8.58
2018-02-17T18:02:26.694Z,8.53
2018-02-17T18:04:53.704Z,8.50
2018-02-17T18:07:20.668Z,8.47
2018-02-17T18:09:47.630Z,8.46
2018-02-17T18:12:14.566Z,8.46
2018-02-17T18:14:41.564Z,8.46
2018-02-17T18:17:08.588Z,8.47
2018-02-17T18:19:35.660Z,8.48
2018-02-17T18:22:02.722Z,8.48
2018-02-17T18:24:29.724Z,8.41
2018-02-17T18:26:56.813Z,8.35
2018-02-17T18:29:23.906Z,8.33
2018-02-17T18:31:50.948Z,8.34
2018-02-17T18:34:17.944Z,8.31
2018-02-17T18:36:44.967Z,8.26
2018-02-17T18:39:11.986Z,8.29
2018-02-17T18:41:39.051Z,8.34
2018-02-17T18:44:06.159Z,8.44
2018-02-17T18:46:33.185Z,8.46
2018-02-17T18:49:00.245Z,8.45
2018-02-17T18:51:27.241Z,8.50
2018-02-17T18:53:54.314Z,8.53
2018-02-17T18:56:21.348Z,8.55
2018-02-17T18:58:48.395Z,8.61
2018-02-17T19:01:15.453Z,8.65
2018-02-17T19:03:42.472Z,8.65
2018-02-17T19:06:09.525Z,8.64
2018-02-17T19:08:36.481Z,8.57
2018-02-17T19:11:03.550Z,8.59
2018-02-17T19:13:30.614Z,8.63
2018-02-17T19:15:57.738Z,8.65
2018-02-17T19:18:24.725Z,8.68
2018-02-17T19:20:51.734Z,8.65
2018-02-17T19:23:18.741Z,8.63
2018-02-17T19:25:45.812Z,8.61
2018-02-17T19:28:12.943Z,8.56
2018-02-17T19:30:39.968Z,8.50
2018-02-17T19:33:07.073Z,8.52
2018-02-17T19:35:34.062Z,8.52
2018-02-17T19:38:01.123Z,8.55
2018-02-17T19:40:28.161Z,8.53
2018-02-17T19:42:55.234Z,8.54
2018-02-17T19:45:22.276Z,8.57
2018-02-17T19:47:49.328Z,8.59
2018-02-17T19:50:16.366Z,8.57
2018-02-17T19:52:43.401Z,8.57
2018-02-17T19:55:11.066Z,8.46
2018-02-17T19:57:38.028Z,8.45
2018-02-17T20:00:05.025Z,8.38
2018-02-17T20:02:32.099Z,8.37
2018-02-17T20:04:59.220Z,8.39
2018-02-17T20:07:26.247Z,8.35
2018-02-17T20:09:53.238Z,8.37
2018-02-17T20:12:20.272Z,8.37
2018-02-17T20:14:47.275Z,8.35
2018-02-17T20:17:14.411Z,8.33
2018-02-17T20:19:41.544Z,8.34
2018-02-17T20:22:08.580Z,8.35
2018-02-17T20:24:35.601Z,8.34
2018-02-17T20:27:02.632Z,8.29
2018-02-17T20:29:29.908Z,8.25
2018-02-17T20:31:56.965Z,8.21
2018-02-17T20:34:23.980Z,8.20
2018-02-17T20:36:51.081Z,8.18
2018-02-17T20:39:18.128Z,8.17
2018-02-17T20:41:45.137Z,8.18
2018-02-17T20:44:12.154Z,8.15
2018-02-17T20:46:39.204Z,8.10
2018-02-17T20:49:06.287Z,8.10
2018-02-17T20:51:33.354Z,8.11
2018-02-17T20:54:00.338Z,8.14
2018-02-17T20:56:27.403Z,8.17
2018-02-17T20:58:54.471Z,8.19
2018-02-17T21:01:21.568Z,8.23
2018-02-17T21:03:48.624Z,8.28
2018-02-17T21:06:15.636Z,8.29
2018-02-17T21:08:42.709Z,8.31
2018-02-17T21:11:09.771Z,8.26
2018-02-17T21:13:36.780Z,8.21
2018-02-17T21:16:03.869Z,8.25
2018-02-17T21:18:30.932Z,8.32
2018-02-17T21:20:57.889Z,8.33
2018-02-17T21:23:24.950Z,8.31
2018-02-17T21:25:52.088Z,8.33
2018-02-17T21:28:19.098Z,8.27
2018-02-17T21:30:46.127Z,8.21
2018-02-17T21:33:13.237Z,8.22
2018-02-17T21:35:40.210Z,8.16
2018-02-17T21:38:07.208Z,8.14
2018-02-17T21:40:34.273Z,8.17
2018-02-17T21:43:01.361Z,8.16
2018-02-17T21:45:28.395Z,8.11
2018-02-17T21:47:55.424Z,8.08
2018-02-17T21:50:22.482Z,8.12
2018-02-17T21:52:49.510Z,8.13
2018-02-17T21:55:16.593Z,8.18
2018-02-17T21:57:43.651Z,8.25
2018-02-17T22:00:10.617Z,8.29
2018-02-17T22:02:37.667Z,8.35
2018-02-17T22:05:04.686Z,8.39
2018-02-17T22:07:31.702Z,8.42
2018-02-17T22:09:58.739Z,8.40
2018-02-17T22:12:25.818Z,8.32
2018-02-17T22:14:52.781Z,8.26
2018-02-17T22:17:19.800Z,8.19
2018-02-17T22:19:46.863Z,8.22
2018-02-17T22:22:14.291Z,8.15
2018-02-17T22:24:41.464Z,8.15
2018-02-17T22:27:08.476Z,8.13
2018-02-17T22:29:35.537Z,8.07
2018-02-17T22:32:02.621Z,7.98
2018-02-17T22:34:29.666Z,8.00
2018-02-17T22:36:57.480Z,7.98
2018-02-17T22:39:24.524Z,7.88
2018-02-17T22:41:51.513Z,7.88
2018-02-17T22:44:18.509Z,7.90
2018-02-17T22:46:46.131Z,7.86
2018-02-17T22:49:13.145Z,7.84
2018-02-17T22:51:40.291Z,7.89
2018-02-17T22:54:07.347Z,7.90
2018-02-17T22:56:34.397Z,7.90
2018-02-17T22:59:01.451Z,7.79
2018-02-17T23:01:28.482Z,7.80
2018-02-17T23:03:55.535Z,7.82
2018-02-17T23:06:22.579Z,7.79
2018-02-17T23:08:49.594Z,7.73
2018-02-17T23:11:16.600Z,7.71
2018-02-17T23:13:43.609Z,7.70
2018-02-17T23:16:10.567Z,7.68
2018-02-17T23:18:37.605Z,7.66
2018-02-17T23:21:04.655Z,7.67
2018-02-17T23:23:31.750Z,7.66
2018-02-17T23:25:58.837Z,7.64
2018-02-17T23:28:25.869Z,7.64
2018-02-17T23:30:52.904Z,7.59
2018-02-17T23:33:19.977Z,7.57
2018-02-17T23:35:47.210Z,7.63
2018-02-17T23:38:14.337Z,7.68
2018-02-17T23:40:41.466Z,7.62
2018-02-17T23:43:08.439Z,7.56
2018-02-17T23:45:35.482Z,7.56
2018-02-17T23:48:02.585Z,7.59
2018-02-17T23:50:29.563Z,7.61
2018-02-17T23:52:56.637Z,7.58
2018-02-17T23:55:23.674Z,7.56
2018-02-17T23:57:50.740Z,7.62
